createdAt,value
2016-08-16T03:01:17.097Z,1023.07
2016-08-16T03:01:42.670Z,1023.04
2016-08-16T03:02:08.304Z,1023.07
2016-08-16T03:02:33.883Z,1023.06
2016-08-16T03:02:59.453Z,1023.08
2016-08-16T03:03:25.106Z,1023.09
2016-08-16T03:03:50.667Z,1023.06
2016-08-16T03:04:16.286Z,1023.06
2016-08-16T03:04:41.835Z,1023.03
2016-08-16T03:05:07.421Z,1023.05
2016-08-16T03:05:32.984Z,1023.03
2016-08-16T03:05:58.565Z,1023.02
2016-08-16T03:06:24.127Z,1023.02
2016-08-16T03:06:49.695Z,1023.03
2016-08-16T03:08:08.569Z,1023.06
2016-08-16T03:08:34.125Z,1023.02
2016-08-16T03:08:59.710Z,1023
2016-08-16T03:09:25.279Z,1023.01
2016-08-16T03:09:50.832Z,1022.99
2016-08-16T03:10:16.517Z,1023.01
2016-08-16T03:10:42.111Z,1023
2016-08-16T03:11:07.668Z,1023
2016-08-16T03:11:33.347Z,1023.04
2016-08-16T03:11:58.954Z,1022.98
2016-08-16T03:12:24.549Z,1022.99
2016-08-16T03:12:50.087Z,1022.96
2016-08-16T03:13:15.636Z,1022.94
2016-08-16T03:13:41.948Z,1022.99
2016-08-16T03:14:07.574Z,1022.98
2016-08-16T03:14:33.132Z,1022.97
2016-08-16T03:14:58.677Z,1022.91
2016-08-16T03:15:24.321Z,1022.93
2016-08-16T03:15:49.880Z,1022.92
2016-08-16T03:16:15.441Z,1022.99
2016-08-16T03:17:12.505Z,1022.9
2016-08-16T03:17:38.088Z,1022.99
2016-08-16T03:18:03.664Z,1022.92
2016-08-16T03:18:29.215Z,1022.89
2016-08-16T03:18:54.772Z,1022.91
2016-08-16T03:19:20.418Z,1022.92
2016-08-16T03:20:17.550Z,1022.89
2016-08-16T03:20:43.401Z,1022.9
2016-08-16T03:21:08.956Z,1022.88
2016-08-16T03:21:34.514Z,1022.88
2016-08-16T03:22:00.083Z,1022.9
2016-08-16T03:22:25.720Z,1022.89
2016-08-16T03:22:51.281Z,1022.86
2016-08-16T03:23:16.863Z,1022.84
2016-08-16T03:23:42.427Z,1022.85
2016-08-16T03:24:08.007Z,1022.8
2016-08-16T03:24:33.571Z,1022.81
2016-08-16T03:24:59.137Z,1022.86
2016-08-16T03:25:24.726Z,1022.84
2016-08-16T03:25:50.315Z,1022.83
2016-08-16T03:26:16.153Z,1022.83
2016-08-16T03:26:41.737Z,1022.82
2016-08-16T03:27:07.304Z,1022.84
2016-08-16T03:27:32.914Z,1022.82
2016-08-16T03:27:58.495Z,1022.83
2016-08-16T03:28:24.047Z,1022.81
2016-08-16T03:28:50.550Z,1022.83
2016-08-16T03:29:15.353Z,1022.83
2016-08-16T03:29:41.042Z,1022.86
2016-08-16T03:30:06.615Z,1022.81
2016-08-16T03:30:32.375Z,1022.86
2016-08-16T03:30:58.300Z,1022.81
2016-08-16T03:31:23.867Z,1022.81
2016-08-16T03:31:49.558Z,1022.81
2016-08-16T03:32:15.115Z,1022.85
2016-08-16T03:32:40.704Z,1022.83
2016-08-16T03:33:06.268Z,1022.82
2016-08-16T03:33:31.825Z,1022.86
2016-08-16T03:33:57.401Z,1022.84
2016-08-16T03:34:22.974Z,1022.84
2016-08-16T03:34:48.549Z,1022.86
2016-08-16T03:35:14.122Z,1022.83
2016-08-16T03:35:39.681Z,1022.81
2016-08-16T03:36:05.241Z,1022.83
2016-08-16T03:36:30.845Z,1022.84
2016-08-16T03:36:56.416Z,1022.81
2016-08-16T03:37:21.984Z,1022.77
2016-08-16T03:37:47.550Z,1022.8
2016-08-16T03:38:13.120Z,1022.82
2016-08-16T03:38:38.669Z,1022.78
2016-08-16T03:39:04.225Z,1022.78
2016-08-16T03:39:29.785Z,1022.8
2016-08-16T03:39:55.355Z,1022.8
2016-08-16T03:40:20.924Z,1022.81
2016-08-16T03:40:46.489Z,1022.79
2016-08-16T03:41:12.066Z,1022.79
2016-08-16T03:41:37.675Z,1022.75
2016-08-16T03:42:03.240Z,1022.75
2016-08-16T03:42:28.806Z,1022.74
2016-08-16T03:42:54.367Z,1022.74
2016-08-16T03:43:20.003Z,1022.76
2016-08-16T03:43:45.568Z,1022.75
2016-08-16T03:44:11.159Z,1022.74
2016-08-16T03:44:36.846Z,1022.72
2016-08-16T03:45:02.410Z,1022.76
2016-08-16T03:45:28.027Z,1022.73
2016-08-16T03:45:53.692Z,1022.7
2016-08-16T03:46:19.313Z,1022.74
2016-08-16T03:46:44.875Z,1022.74
2016-08-16T03:47:10.482Z,1022.77
2016-08-16T03:47:36.033Z,1022.73
2016-08-16T03:48:01.592Z,1022.73
2016-08-16T03:48:27.153Z,1022.75
2016-08-16T03:48:52.791Z,1022.76
2016-08-16T03:49:18.359Z,1022.74
2016-08-16T03:49:43.930Z,1022.76
2016-08-16T03:50:09.602Z,1022.79
2016-08-16T03:50:35.173Z,1022.75
2016-08-16T03:51:00.728Z,1022.75
2016-08-16T03:51:26.314Z,1022.76
2016-08-16T03:51:51.880Z,1022.8
2016-08-16T03:52:17.429Z,1022.8
2016-08-16T03:52:43.036Z,1022.76
2016-08-16T03:53:08.597Z,1022.76
2016-08-16T03:53:34.174Z,1022.77
2016-08-16T03:53:59.759Z,1022.76
2016-08-16T03:54:25.329Z,1022.8
2016-08-16T03:54:50.891Z,1022.8
2016-08-16T03:55:16.459Z,1022.79
2016-08-16T03:55:42.145Z,1022.78
2016-08-16T03:56:07.745Z,1022.81
2016-08-16T03:56:33.323Z,1022.82
2016-08-16T03:56:58.904Z,1022.78
2016-08-16T03:57:24.472Z,1022.8
2016-08-16T03:57:50.044Z,1022.81
2016-08-16T03:58:15.616Z,1022.87
2016-08-16T03:58:41.188Z,1022.82
2016-08-16T03:59:06.785Z,1022.85
2016-08-16T03:59:32.351Z,1022.84
2016-08-16T03:59:57.926Z,1022.82
2016-08-16T04:01:11.277Z,1022.85
2016-08-16T04:01:36.863Z,1022.83
2016-08-16T04:02:02.412Z,1022.82
2016-08-16T04:02:27.962Z,1022.79
2016-08-16T04:02:53.510Z,1022.8
2016-08-16T04:03:19.051Z,1022.8
2016-08-16T04:03:44.690Z,1022.77
2016-08-16T04:04:10.249Z,1022.8
2016-08-16T04:04:35.853Z,1022.83
2016-08-16T04:05:01.389Z,1022.81
2016-08-16T04:05:26.980Z,1022.82
2016-08-16T04:05:52.539Z,1022.78
2016-08-16T04:06:18.089Z,1022.84
2016-08-16T04:06:43.642Z,1022.83
2016-08-16T04:07:09.189Z,1022.83
2016-08-16T04:08:17.501Z,1022.8
2016-08-16T04:08:43.097Z,1022.83
2016-08-16T04:09:08.666Z,1022.83
2016-08-16T04:09:34.445Z,1022.82
2016-08-16T04:10:03.814Z,1022.79
2016-08-16T04:10:29.380Z,1022.82
2016-08-16T04:10:54.936Z,1022.83
2016-08-16T04:11:20.500Z,1022.81
2016-08-16T04:11:46.091Z,1022.79
2016-08-16T04:12:11.639Z,1022.79
2016-08-16T04:12:37.207Z,1022.82
2016-08-16T04:13:02.785Z,1022.82
2016-08-16T04:13:28.473Z,1022.84
2016-08-16T04:13:54.037Z,1022.8
2016-08-16T04:14:19.762Z,1022.86
2016-08-16T04:14:45.384Z,1022.83
2016-08-16T04:15:11.187Z,1022.82
2016-08-16T04:15:36.864Z,1022.84
2016-08-16T04:16:02.580Z,1022.88
2016-08-16T04:16:28.249Z,1022.86
2016-08-16T04:16:53.799Z,1022.84
2016-08-16T04:17:19.486Z,1022.85
2016-08-16T04:17:45.151Z,1022.84
2016-08-16T04:18:10.950Z,1022.85
2016-08-16T04:18:36.513Z,1022.83
2016-08-16T04:19:02.141Z,1022.87
2016-08-16T04:19:27.675Z,1022.87
2016-08-16T04:19:54.049Z,1022.84
2016-08-16T04:20:18.978Z,1022.86
2016-08-16T04:20:44.534Z,1022.83
2016-08-16T04:21:10.098Z,1022.86
2016-08-16T04:21:35.659Z,1022.83
2016-08-16T04:22:01.945Z,1022.84
2016-08-16T04:22:27.050Z,1022.84
2016-08-16T04:23:29.121Z,1022.83
2016-08-16T04:23:54.743Z,1022.85
2016-08-16T04:24:20.447Z,1022.84
2016-08-16T04:24:45.994Z,1022.85
2016-08-16T04:25:11.552Z,1022.84
2016-08-16T04:25:37.108Z,1022.86
2016-08-16T04:26:02.672Z,1022.87
2016-08-16T04:26:28.239Z,1022.87
2016-08-16T04:26:53.816Z,1022.92
2016-08-16T04:27:19.350Z,1022.88
2016-08-16T04:27:44.921Z,1022.88
2016-08-16T04:28:10.624Z,1022.92
2016-08-16T04:28:36.192Z,1022.86
2016-08-16T04:29:01.757Z,1022.87
2016-08-16T04:29:27.458Z,1022.86
2016-08-16T04:29:53.007Z,1022.87
2016-08-16T04:30:18.566Z,1022.91
2016-08-16T04:30:44.134Z,1022.88
2016-08-16T04:31:09.695Z,1022.89
2016-08-16T04:31:35.286Z,1022.91
2016-08-16T04:32:00.852Z,1022.92
2016-08-16T04:32:26.407Z,1022.87
2016-08-16T04:32:51.985Z,1022.92
2016-08-16T04:33:17.648Z,1022.88
2016-08-16T04:33:43.196Z,1022.89
2016-08-16T04:34:08.754Z,1022.9
2016-08-16T04:34:34.295Z,1022.9
2016-08-16T04:34:59.845Z,1022.87
2016-08-16T04:35:25.401Z,1022.89
2016-08-16T04:35:51.008Z,1022.92
2016-08-16T04:36:16.578Z,1022.88
2016-08-16T04:36:42.143Z,1022.92
2016-08-16T04:37:07.718Z,1022.91
2016-08-16T04:37:33.278Z,1022.86
2016-08-16T04:37:58.825Z,1022.91
2016-08-16T04:38:24.385Z,1022.92
2016-08-16T04:38:49.956Z,1022.91
2016-08-16T04:39:15.523Z,1022.9
2016-08-16T04:39:41.085Z,1022.9
2016-08-16T04:40:06.665Z,1022.9
2016-08-16T04:40:32.269Z,1022.89
2016-08-16T04:40:57.853Z,1022.88
2016-08-16T04:41:23.521Z,1022.88
2016-08-16T04:41:49.188Z,1022.86
2016-08-16T04:42:14.793Z,1022.87
2016-08-16T04:42:40.356Z,1022.84
2016-08-16T04:43:05.940Z,1022.83
2016-08-16T04:43:31.501Z,1022.85
2016-08-16T04:43:57.054Z,1022.81
2016-08-16T04:44:22.724Z,1022.81
2016-08-16T04:44:48.200Z,1022.83
2016-08-16T04:45:13.766Z,1022.8
2016-08-16T04:45:39.333Z,1022.81
2016-08-16T04:46:04.887Z,1022.79
2016-08-16T04:46:30.437Z,1022.8
2016-08-16T04:46:56.007Z,1022.78
2016-08-16T04:47:21.596Z,1022.8
2016-08-16T04:47:47.166Z,1022.74
2016-08-16T04:48:12.786Z,1022.7
2016-08-16T04:48:38.365Z,1022.76
2016-08-16T04:49:03.921Z,1022.75
2016-08-16T04:49:29.478Z,1022.74
2016-08-16T04:49:55.042Z,1022.79
2016-08-16T04:50:20.614Z,1022.76
2016-08-16T04:50:46.186Z,1022.73
2016-08-16T04:51:11.753Z,1022.73
2016-08-16T04:51:37.318Z,1022.74
2016-08-16T04:52:02.914Z,1022.71
2016-08-16T04:52:28.480Z,1022.75
2016-08-16T04:52:54.048Z,1022.78
2016-08-16T04:53:19.620Z,1022.74
2016-08-16T04:53:45.193Z,1022.75
2016-08-16T04:54:10.854Z,1022.72
2016-08-16T04:54:36.329Z,1022.69
2016-08-16T04:55:01.909Z,1022.75
2016-08-16T04:55:27.463Z,1022.74
2016-08-16T04:55:53.040Z,1022.72
2016-08-16T04:56:18.606Z,1022.7
2016-08-16T04:56:44.158Z,1022.74
2016-08-16T04:57:09.814Z,1022.73
2016-08-16T04:57:35.411Z,1022.7
2016-08-16T04:58:00.951Z,1022.66
2016-08-16T04:58:26.518Z,1022.69
2016-08-16T04:58:52.101Z,1022.73
2016-08-16T04:59:17.669Z,1022.71
2016-08-16T04:59:43.314Z,1022.68
2016-08-16T05:00:08.867Z,1022.7
2016-08-16T05:00:34.430Z,1022.66
2016-08-16T05:01:00.014Z,1022.69
2016-08-16T05:01:25.591Z,1022.66
2016-08-16T05:01:51.175Z,1022.66
2016-08-16T05:02:16.729Z,1022.64
2016-08-16T05:02:42.398Z,1022.68
2016-08-16T05:03:07.969Z,1022.64
2016-08-16T05:03:33.538Z,1022.66
2016-08-16T05:03:59.088Z,1022.65
2016-08-16T05:04:24.641Z,1022.63
2016-08-16T05:04:50.194Z,1022.63
2016-08-16T05:05:15.756Z,1022.65
2016-08-16T05:05:41.381Z,1022.66
2016-08-16T05:06:06.937Z,1022.62
2016-08-16T05:06:32.476Z,1022.64
2016-08-16T05:06:58.035Z,1022.66
2016-08-16T05:07:23.601Z,1022.63
2016-08-16T05:07:49.163Z,1022.6
2016-08-16T05:08:14.794Z,1022.65
2016-08-16T05:08:40.364Z,1022.6
2016-08-16T05:09:05.919Z,1022.61
2016-08-16T05:09:31.481Z,1022.64
2016-08-16T05:09:57.054Z,1022.61
2016-08-16T05:10:22.632Z,1022.64
2016-08-16T05:10:48.195Z,1022.63
2016-08-16T05:11:13.758Z,1022.67
2016-08-16T05:11:39.318Z,1022.65
2016-08-16T05:12:04.961Z,1022.61
2016-08-16T05:12:30.533Z,1022.68
2016-08-16T05:12:56.092Z,1022.62
2016-08-16T05:13:21.666Z,1022.63
2016-08-16T05:13:47.223Z,1022.61
2016-08-16T05:14:12.789Z,1022.6
2016-08-16T05:14:38.354Z,1022.67
2016-08-16T05:15:03.917Z,1022.65
2016-08-16T05:15:29.479Z,1022.66
2016-08-16T05:15:55.065Z,1022.63
2016-08-16T05:16:20.638Z,1022.59
2016-08-16T05:16:46.325Z,1022.62
2016-08-16T05:17:11.951Z,1022.63
2016-08-16T05:17:37.514Z,1022.62
2016-08-16T05:18:03.096Z,1022.61
2016-08-16T05:18:28.730Z,1022.6
2016-08-16T05:18:54.304Z,1022.56
2016-08-16T05:19:19.886Z,1022.61
2016-08-16T05:19:45.445Z,1022.56
2016-08-16T05:20:11.015Z,1022.59
2016-08-16T05:20:36.571Z,1022.59
2016-08-16T05:21:02.154Z,1022.57
2016-08-16T05:22:15.966Z,1022.58
2016-08-16T05:22:41.691Z,1022.62
2016-08-16T05:23:07.644Z,1022.59
2016-08-16T05:23:33.750Z,1022.6
2016-08-16T05:23:59.786Z,1022.59
2016-08-16T05:24:26.125Z,1022.57
2016-08-16T05:24:52.211Z,1022.58
2016-08-16T05:25:18.305Z,1022.58
2016-08-16T05:25:44.127Z,1022.57
2016-08-16T05:26:10.189Z,1022.59
2016-08-16T05:26:35.968Z,1022.55
2016-08-16T05:27:01.914Z,1022.55
2016-08-16T05:27:27.814Z,1022.55
2016-08-16T05:27:53.713Z,1022.53
2016-08-16T05:28:19.953Z,1022.55
2016-08-16T05:28:46.006Z,1022.55
2016-08-16T05:29:12.479Z,1022.52
2016-08-16T05:29:38.621Z,1022.53
2016-08-16T05:30:04.939Z,1022.54
2016-08-16T05:30:31.067Z,1022.52
2016-08-16T05:30:57.559Z,1022.5
2016-08-16T05:31:23.479Z,1022.53
2016-08-16T05:31:49.616Z,1022.47
2016-08-16T05:32:15.723Z,1022.49
2016-08-16T05:32:42.180Z,1022.45
2016-08-16T05:33:08.816Z,1022.48
2016-08-16T05:33:34.777Z,1022.43
2016-08-16T05:34:01.006Z,1022.41
2016-08-16T05:34:27.219Z,1022.42
2016-08-16T05:34:53.023Z,1022.42
2016-08-16T05:35:18.894Z,1022.44
2016-08-16T05:35:45.139Z,1022.39
2016-08-16T05:36:11.253Z,1022.42
2016-08-16T05:36:37.511Z,1022.39
2016-08-16T05:37:03.755Z,1022.36
2016-08-16T05:37:29.837Z,1022.33
2016-08-16T05:37:56.289Z,1022.37
2016-08-16T05:38:22.581Z,1022.4
2016-08-16T05:38:48.931Z,1022.43
2016-08-16T05:39:15.216Z,1022.39
2016-08-16T05:39:41.180Z,1022.4
2016-08-16T05:40:07.457Z,1022.39
2016-08-16T05:40:33.678Z,1022.39
2016-08-16T05:40:59.703Z,1022.43
2016-08-16T05:41:26.122Z,1022.44
2016-08-16T05:41:52.133Z,1022.36
2016-08-16T05:42:18.287Z,1022.4
2016-08-16T05:42:44.304Z,1022.45
2016-08-16T05:43:10.577Z,1022.38
2016-08-16T05:43:36.376Z,1022.37
2016-08-16T05:44:02.477Z,1022.43
2016-08-16T05:44:28.858Z,1022.42
2016-08-16T05:44:54.846Z,1022.37
2016-08-16T05:45:20.903Z,1022.38
2016-08-16T05:45:47.053Z,1022.36
2016-08-16T05:46:13.130Z,1022.35
2016-08-16T05:46:39.333Z,1022.36
2016-08-16T05:47:05.457Z,1022.37
2016-08-16T05:47:31.497Z,1022.36
2016-08-16T05:47:57.412Z,1022.38
2016-08-16T05:48:23.433Z,1022.37
2016-08-16T05:48:49.926Z,1022.36
2016-08-16T05:49:16.254Z,1022.34
2016-08-16T05:49:42.742Z,1022.34
2016-08-16T05:50:08.828Z,1022.35
2016-08-16T05:50:34.776Z,1022.35
2016-08-16T05:51:00.828Z,1022.34
2016-08-16T05:51:26.666Z,1022.35
2016-08-16T05:51:53.200Z,1022.36
2016-08-16T05:52:19.342Z,1022.37
2016-08-16T05:52:45.696Z,1022.35
2016-08-16T05:53:11.601Z,1022.35
2016-08-16T05:53:38.243Z,1022.4
2016-08-16T05:54:04.119Z,1022.37
2016-08-16T05:54:30.135Z,1022.34
2016-08-16T05:54:55.937Z,1022.35
2016-08-16T05:55:21.493Z,1022.36
2016-08-16T05:55:47.054Z,1022.35
2016-08-16T05:56:12.631Z,1022.34
2016-08-16T05:56:38.227Z,1022.3
2016-08-16T05:57:03.825Z,1022.32
2016-08-16T05:57:29.411Z,1022.3
2016-08-16T05:57:54.975Z,1022.3
2016-08-16T05:58:21.128Z,1022.31
2016-08-16T05:58:47.534Z,1022.34
2016-08-16T05:59:13.666Z,1022.31
2016-08-16T06:00:11.988Z,1022.27
2016-08-16T06:16:08.325Z,1022.32
2016-08-16T06:16:34.266Z,1022.29
2016-08-16T06:17:00.575Z,1022.33
2016-08-16T06:17:26.520Z,1022.32
2016-08-16T06:17:52.657Z,1022.29
2016-08-16T06:18:19.142Z,1022.31
2016-08-16T06:18:45.131Z,1022.33
2016-08-16T06:27:14.863Z,1022.37
2016-08-16T06:27:40.466Z,1022.36
2016-08-16T06:28:06.030Z,1022.38
2016-08-16T06:28:31.585Z,1022.37
2016-08-16T06:28:57.120Z,1022.38
2016-08-16T06:29:22.669Z,1022.32
2016-08-16T06:29:48.272Z,1022.38
2016-08-16T06:30:15.079Z,1022.36
2016-08-16T06:30:41.756Z,1022.34
2016-08-16T06:31:07.314Z,1022.34
2016-08-16T06:31:32.880Z,1022.31
2016-08-16T06:31:58.492Z,1022.38
2016-08-16T06:32:24.089Z,1022.32
2016-08-16T06:32:49.631Z,1022.32
2016-08-16T06:33:15.182Z,1022.32
2016-08-16T06:33:40.758Z,1022.31
2016-08-16T06:34:06.314Z,1022.33
2016-08-16T06:34:31.917Z,1022.31
2016-08-16T06:34:57.487Z,1022.27
2016-08-16T06:35:23.059Z,1022.32
2016-08-16T06:35:48.631Z,1022.29
2016-08-16T06:36:14.278Z,1022.3
2016-08-16T06:36:39.845Z,1022.33
2016-08-16T06:37:05.440Z,1022.29
2016-08-16T06:37:31.007Z,1022.3
2016-08-16T06:37:56.580Z,1022.3
2016-08-16T06:38:22.128Z,1022.31
2016-08-16T06:39:20.275Z,1022.35
2016-08-16T06:39:45.905Z,1022.31
2016-08-16T06:40:11.490Z,1022.28
2016-08-16T06:40:37.053Z,1022.31
2016-08-16T06:41:02.599Z,1022.31
2016-08-16T06:41:28.296Z,1022.34
2016-08-16T06:41:53.862Z,1022.3
2016-08-16T06:42:19.454Z,1022.29
2016-08-16T06:42:45.131Z,1022.31
2016-08-16T06:43:10.691Z,1022.32
2016-08-16T06:43:36.318Z,1022.28
2016-08-16T06:44:01.967Z,1022.32
2016-08-16T06:44:27.498Z,1022.31
2016-08-16T06:44:53.075Z,1022.32
2016-08-16T06:45:18.650Z,1022.31
2016-08-16T06:45:44.219Z,1022.33
2016-08-16T06:46:09.774Z,1022.32
2016-08-16T06:46:35.359Z,1022.34
2016-08-16T06:47:00.953Z,1022.32
2016-08-16T06:47:26.615Z,1022.36
2016-08-16T06:47:52.177Z,1022.31
2016-08-16T06:48:17.737Z,1022.27
2016-08-16T06:48:43.328Z,1022.29
2016-08-16T06:49:08.872Z,1022.3
2016-08-16T06:49:34.425Z,1022.32
2016-08-16T06:49:59.983Z,1022.34
2016-08-16T06:50:25.579Z,1022.32
2016-08-16T06:50:51.264Z,1022.33
2016-08-16T06:51:16.986Z,1022.33
2016-08-16T06:51:42.544Z,1022.34
2016-08-16T06:52:08.138Z,1022.36
2016-08-16T06:52:33.678Z,1022.35
2016-08-16T06:52:59.222Z,1022.35
2016-08-16T06:53:24.766Z,1022.35
2016-08-16T06:53:50.319Z,1022.39
2016-08-16T06:54:15.896Z,1022.35
2016-08-16T06:54:41.476Z,1022.38
2016-08-16T06:55:07.026Z,1022.38
2016-08-16T06:55:32.568Z,1022.34
2016-08-16T06:55:58.124Z,1022.37
2016-08-16T06:56:23.666Z,1022.41
2016-08-16T06:56:49.217Z,1022.38
2016-08-16T06:57:14.776Z,1022.36
2016-08-16T06:57:40.412Z,1022.36
2016-08-16T06:58:05.968Z,1022.33
2016-08-16T06:58:31.513Z,1022.33
2016-08-16T06:58:57.066Z,1022.32
2016-08-16T06:59:22.616Z,1022.37
2016-08-16T06:59:48.171Z,1022.34
2016-08-16T07:00:13.735Z,1022.33
2016-08-16T07:00:39.294Z,1022.3
2016-08-16T07:01:04.882Z,1022.32
2016-08-16T07:01:30.541Z,1022.32
2016-08-16T07:01:56.103Z,1022.34
2016-08-16T07:02:21.672Z,1022.32
2016-08-16T07:02:47.232Z,1022.32
2016-08-16T07:03:12.798Z,1022.3
2016-08-16T07:03:38.368Z,1022.33
2016-08-16T07:04:03.946Z,1022.31
2016-08-16T07:04:29.515Z,1022.34
2016-08-16T07:04:55.088Z,1022.33
2016-08-16T07:05:20.730Z,1022.33
2016-08-16T07:05:46.374Z,1022.35
2016-08-16T07:06:11.952Z,1022.36
2016-08-16T07:06:37.520Z,1022.39
2016-08-16T07:07:03.103Z,1022.38
2016-08-16T07:07:28.688Z,1022.37
2016-08-16T07:07:54.252Z,1022.38
2016-08-16T07:08:19.827Z,1022.38
2016-08-16T07:08:45.461Z,1022.35
2016-08-16T07:09:11.022Z,1022.41
2016-08-16T07:09:36.589Z,1022.34
2016-08-16T07:10:02.166Z,1022.35
2016-08-16T07:10:27.721Z,1022.37
2016-08-16T07:10:53.261Z,1022.39
2016-08-16T07:11:18.827Z,1022.37
2016-08-16T07:11:44.376Z,1022.36
2016-08-16T07:12:09.941Z,1022.36
2016-08-16T07:12:35.579Z,1022.35
2016-08-16T07:13:01.170Z,1022.36
2016-08-16T07:13:26.756Z,1022.32
2016-08-16T07:13:52.311Z,1022.33
2016-08-16T07:14:17.888Z,1022.37
2016-08-16T07:14:43.452Z,1022.3
2016-08-16T07:15:09.011Z,1022.3
2016-08-16T07:15:34.587Z,1022.33
2016-08-16T07:16:00.143Z,1022.32
2016-08-16T07:16:25.712Z,1022.34
2016-08-16T07:16:51.281Z,1022.38
2016-08-16T07:17:16.853Z,1022.36
2016-08-16T07:17:42.543Z,1022.34
2016-08-16T07:18:08.129Z,1022.32
2016-08-16T07:18:33.684Z,1022.32
2016-08-16T07:18:59.325Z,1022.38
2016-08-16T07:19:24.944Z,1022.38
2016-08-16T07:19:50.522Z,1022.36
2016-08-16T07:20:16.112Z,1022.37
2016-08-16T07:20:41.739Z,1022.34
2016-08-16T07:21:07.482Z,1022.33
2016-08-16T07:21:33.048Z,1022.37
2016-08-16T07:21:58.646Z,1022.35
2016-08-16T07:22:24.204Z,1022.34
2016-08-16T07:22:49.783Z,1022.31
2016-08-16T07:23:15.363Z,1022.34
2016-08-16T07:23:40.996Z,1022.34
2016-08-16T07:24:06.558Z,1022.31
2016-08-16T07:24:32.106Z,1022.3
2016-08-16T07:24:57.773Z,1022.3
2016-08-16T07:25:23.358Z,1022.32
2016-08-16T07:25:48.932Z,1022.3
2016-08-16T07:26:14.511Z,1022.31
2016-08-16T07:26:40.053Z,1022.29
2016-08-16T07:27:05.627Z,1022.31
2016-08-16T07:27:31.198Z,1022.3
2016-08-16T07:27:56.792Z,1022.32
2016-08-16T07:28:22.363Z,1022.3
2016-08-16T07:28:47.946Z,1022.34
2016-08-16T07:29:13.513Z,1022.3
2016-08-16T07:29:39.079Z,1022.31
2016-08-16T07:30:04.643Z,1022.31
2016-08-16T07:30:30.333Z,1022.32
2016-08-16T07:30:55.902Z,1022.3
2016-08-16T07:31:21.465Z,1022.3
2016-08-16T07:31:47.032Z,1022.31
2016-08-16T07:32:12.963Z,1022.31
2016-08-16T07:32:38.520Z,1022.31
2016-08-16T07:33:04.088Z,1022.33
2016-08-16T07:33:29.639Z,1022.32
2016-08-16T07:33:55.194Z,1022.3
2016-08-16T07:34:20.771Z,1022.3
2016-08-16T07:34:46.317Z,1022.3
2016-08-16T07:35:11.899Z,1022.27
2016-08-16T07:35:37.543Z,1022.29
2016-08-16T07:36:03.108Z,1022.33
2016-08-16T07:36:28.675Z,1022.28
2016-08-16T07:36:54.217Z,1022.33
2016-08-16T07:37:19.779Z,1022.28
2016-08-16T07:37:45.365Z,1022.32
2016-08-16T07:38:10.923Z,1022.31
2016-08-16T07:38:36.494Z,1022.28
2016-08-16T07:39:02.100Z,1022.32
2016-08-16T07:39:27.868Z,1022.3
2016-08-16T07:39:53.534Z,1022.27
2016-08-16T07:40:19.066Z,1022.31
2016-08-16T07:40:44.641Z,1022.28
2016-08-16T07:41:10.253Z,1022.33
2016-08-16T07:41:35.895Z,1022.29
2016-08-16T07:42:01.451Z,1022.28
2016-08-16T07:42:27.022Z,1022.28
2016-08-16T07:42:52.569Z,1022.25
2016-08-16T07:43:18.155Z,1022.29
2016-08-16T07:43:43.729Z,1022.31
2016-08-16T07:44:09.297Z,1022.29
2016-08-16T07:44:34.866Z,1022.28
2016-08-16T07:45:00.454Z,1022.33
2016-08-16T07:45:26.157Z,1022.29
2016-08-16T07:45:51.786Z,1022.27
2016-08-16T07:46:17.393Z,1022.29
2016-08-16T07:46:42.971Z,1022.26
2016-08-16T07:47:08.529Z,1022.26
2016-08-16T07:47:34.089Z,1022.24
2016-08-16T07:47:59.642Z,1022.27
2016-08-16T07:48:25.235Z,1022.27
2016-08-16T07:48:50.816Z,1022.25
2016-08-16T07:49:16.382Z,1022.25
2016-08-16T07:49:41.951Z,1022.25
2016-08-16T07:50:07.549Z,1022.29
2016-08-16T07:50:33.119Z,1022.32
2016-08-16T07:50:58.696Z,1022.25
2016-08-16T07:51:24.257Z,1022.24
2016-08-16T07:51:49.832Z,1022.3
2016-08-16T07:52:15.382Z,1022.3
2016-08-16T07:52:40.948Z,1022.26
2016-08-16T07:53:06.512Z,1022.28
2016-08-16T07:53:32.119Z,1022.24
2016-08-16T07:53:57.683Z,1022.25
2016-08-16T07:54:23.305Z,1022.24
2016-08-16T07:54:48.873Z,1022.24
2016-08-16T07:55:14.431Z,1022.23
2016-08-16T07:55:40.137Z,1022.21
2016-08-16T07:56:05.707Z,1022.23
2016-08-16T07:56:31.282Z,1022.26
2016-08-16T07:56:56.837Z,1022.26
2016-08-16T07:57:22.467Z,1022.24
2016-08-16T07:57:48.056Z,1022.24
2016-08-16T07:58:13.640Z,1022.21
2016-08-16T07:58:39.189Z,1022.23
2016-08-16T07:59:04.767Z,1022.23
2016-08-16T07:59:30.367Z,1022.18
2016-08-16T07:59:55.945Z,1022.21
2016-08-16T08:00:21.562Z,1022.22
2016-08-16T08:00:47.133Z,1022.21
2016-08-16T08:01:12.702Z,1022.19
2016-08-16T08:02:25.686Z,1022.21
2016-08-16T08:02:51.273Z,1022.16
2016-08-16T08:03:16.829Z,1022.17
2016-08-16T08:04:19.995Z,1022.21
2016-08-16T08:04:45.655Z,1022.2
2016-08-16T08:05:11.141Z,1022.17
2016-08-16T08:05:36.694Z,1022.25
2016-08-16T08:06:02.267Z,1022.23
2016-08-16T08:06:27.824Z,1022.2
2016-08-16T08:06:53.515Z,1022.21
2016-08-16T08:07:19.128Z,1022.23
2016-08-16T08:07:44.744Z,1022.24
2016-08-16T08:08:10.316Z,1022.26
2016-08-16T08:08:35.866Z,1022.25
2016-08-16T08:09:01.427Z,1022.23
2016-08-16T08:09:27.073Z,1022.25
2016-08-16T08:09:52.624Z,1022.27
2016-08-16T08:10:18.159Z,1022.29
2016-08-16T08:10:43.734Z,1022.25
2016-08-16T08:11:09.284Z,1022.29
2016-08-16T08:11:34.982Z,1022.25
2016-08-16T08:12:00.547Z,1022.27
2016-08-16T08:12:26.130Z,1022.3
2016-08-16T08:12:51.698Z,1022.24
2016-08-16T08:13:17.269Z,1022.24
2016-08-16T08:14:20.464Z,1022.2
2016-08-16T08:14:46.040Z,1022.25
2016-08-16T08:15:11.603Z,1022.28
2016-08-16T08:15:37.189Z,1022.27
2016-08-16T08:16:02.798Z,1022.25
2016-08-16T08:16:28.391Z,1022.25
2016-08-16T08:16:53.952Z,1022.28
2016-08-16T08:17:19.516Z,1022.26
2016-08-16T08:17:45.097Z,1022.25
2016-08-16T08:18:10.716Z,1022.25
2016-08-16T08:18:36.276Z,1022.28
2016-08-16T08:19:01.842Z,1022.25
2016-08-16T08:19:27.446Z,1022.26
2016-08-16T08:19:53.033Z,1022.24
2016-08-16T08:20:18.761Z,1022.21
2016-08-16T08:20:44.332Z,1022.21
2016-08-16T08:21:09.901Z,1022.23
2016-08-16T08:21:35.461Z,1022.21
2016-08-16T08:22:01.029Z,1022.22
2016-08-16T08:22:26.628Z,1022.26
2016-08-16T08:22:52.241Z,1022.24
2016-08-16T08:23:17.776Z,1022.2
2016-08-16T08:23:43.341Z,1022.2
2016-08-16T08:24:08.906Z,1022.19
2016-08-16T08:24:34.497Z,1022.22
2016-08-16T08:25:00.055Z,1022.18
2016-08-16T08:25:25.625Z,1022.2
2016-08-16T08:25:51.187Z,1022.18
2016-08-16T08:26:16.755Z,1022.16
2016-08-16T08:26:42.337Z,1022.2
2016-08-16T08:27:07.876Z,1022.14
2016-08-16T08:27:33.444Z,1022.17
2016-08-16T08:27:59.007Z,1022.14
2016-08-16T08:28:24.574Z,1022.18
2016-08-16T08:28:50.175Z,1022.13
2016-08-16T08:29:15.748Z,1022.14
2016-08-16T08:29:41.317Z,1022.13
2016-08-16T08:30:06.887Z,1022.12
2016-08-16T08:30:32.433Z,1022.13
2016-08-16T08:30:58.012Z,1022.13
2016-08-16T08:31:23.587Z,1022.07
2016-08-16T08:31:49.147Z,1022.12
2016-08-16T08:32:14.815Z,1022.11
2016-08-16T08:32:40.376Z,1022.11
2016-08-16T08:33:05.952Z,1022.08
2016-08-16T08:33:31.534Z,1022.11
2016-08-16T08:33:57.134Z,1022.11
2016-08-16T08:34:22.710Z,1022.07
2016-08-16T08:34:48.284Z,1022.09
2016-08-16T08:35:13.868Z,1022.09
2016-08-16T08:35:39.519Z,1022.09
2016-08-16T08:36:05.083Z,1022.12
2016-08-16T08:36:30.629Z,1022.08
2016-08-16T08:36:56.179Z,1022.04
2016-08-16T08:37:21.726Z,1022.1
2016-08-16T08:37:47.395Z,1022.08
2016-08-16T08:38:12.976Z,1022.11
2016-08-16T08:38:38.511Z,1022.11
2016-08-16T08:39:04.179Z,1022.12
2016-08-16T08:39:29.713Z,1022.08
2016-08-16T08:39:55.309Z,1022.15
2016-08-16T08:40:20.972Z,1022.18
2016-08-16T08:40:46.557Z,1022.17
2016-08-16T08:41:12.144Z,1022.11
2016-08-16T08:41:37.697Z,1022.11
2016-08-16T08:42:03.258Z,1022.09
2016-08-16T08:42:28.820Z,1022.13
2016-08-16T08:42:54.372Z,1022.13
2016-08-16T08:43:19.931Z,1022.14
2016-08-16T08:43:45.474Z,1022.15
2016-08-16T08:44:11.105Z,1022.11